Time;durP1;ratioP1;P1;durP2;ratioP2;P2;SDS_P1;SDS_P2;PMS_P1;PMS_P2;Temp;Humidity;BMP_temperature;BMP_pressure;BME280_temperature;BME280_humidity;BME280_pressure;Samples;Min_cycle;Max_cycle;Signal;HPM_P1;HPM_P2
2023/06/08 00:02:00;;;;;;;11.07;9.77;;;12.90;99.90;;;;;;5112274;28;20702;-77
2023/06/08 00:04:30;;;;;;;10.93;9.30;;;12.90;99.90;;;;;;5093573;28;20199;-78
2023/06/08 00:06:59;;;;;;;10.93;9.20;;;12.80;99.90;;;;;;5093437;28;20211;-79
2023/06/08 00:09:27;;;;;;;10.17;9.13;;;12.80;99.90;;;;;;5093423;28;20340;-79
2023/06/08 00:11:58;;;;;;;11.53;9.53;;;12.80;99.90;;;;;;5092474;28;20206;-78
2023/06/08 00:14:26;;;;;;;9.73;8.83;;;12.80;99.90;;;;;;5093126;28;20210;-79
2023/06/08 00:16:56;;;;;;;11.10;9.87;;;12.70;99.90;;;;;;5093367;28;20214;-79
2023/06/08 00:19:24;;;;;;;10.20;9.20;;;12.80;99.90;;;;;;5093656;28;20225;-77
2023/06/08 00:21:56;;;;;;;11.47;9.77;;;12.70;99.90;;;;;;5091878;28;20262;-77
2023/06/08 00:24:24;;;;;;;10.07;9.03;;;12.70;99.90;;;;;;5093106;28;20292;-79
2023/06/08 00:26:52;;;;;;;10.80;9.70;;;12.70;99.90;;;;;;5093091;28;20249;-79
2023/06/08 00:29:21;;;;;;;10.37;9.27;;;12.70;99.90;;;;;;5092999;28;20285;-79
2023/06/08 00:31:49;;;;;;;10.57;9.47;;;12.70;99.90;;;;;;5110533;28;20717;-77
2023/06/08 00:34:19;;;;;;;10.03;9.13;;;12.60;99.90;;;;;;5113022;28;20386;-79
2023/06/08 00:36:48;;;;;;;10.63;9.60;;;12.60;99.90;;;;;;5113343;28;20607;-78
2023/06/08 00:39:16;;;;;;;12.20;10.03;;;12.50;99.90;;;;;;5111746;28;20206;-78
2023/06/08 00:41:44;;;;;;;11.03;9.93;;;12.50;99.90;;;;;;5113099;28;20305;-79
2023/06/08 00:44:12;;;;;;;13.33;10.23;;;12.50;99.90;;;;;;5113395;28;20675;-77
2023/06/08 00:46:41;;;;;;;10.83;9.73;;;12.50;99.90;;;;;;5120946;28;20206;-80
2023/06/08 00:49:13;;;;;;;11.97;10.60;;;12.50;99.90;;;;;;5112532;28;20293;-79
2023/06/08 00:51:43;;;;;;;11.53;10.30;;;12.50;99.90;;;;;;5113102;28;20210;-79
2023/06/08 00:54:14;;;;;;;10.97;9.77;;;12.50;99.90;;;;;;5112856;28;20209;-79
2023/06/08 00:56:48;;;;;;;11.10;9.80;;;12.40;99.90;;;;;;5112851;28;20205;-77
2023/06/08 00:59:18;;;;;;;11.33;10.23;;;12.40;99.90;;;;;;5113115;28;20732;-79
2023/06/08 01:01:47;;;;;;;13.03;10.17;;;12.30;99.90;;;;;;5113533;28;20226;-79
2023/06/08 01:04:15;;;;;;;11.30;10.10;;;12.30;99.90;;;;;;5113246;28;20242;-80
2023/06/08 01:06:48;;;;;;;10.10;9.10;;;12.30;99.90;;;;;;5111903;28;20205;-78
2023/06/08 01:09:25;;;;;;;12.03;10.83;;;12.30;99.90;;;;;;5112633;28;20216;-77
2023/06/08 01:12:11;;;;;;;11.20;10.10;;;12.30;99.90;;;;;;5112714;28;20220;-79
2023/06/08 01:14:50;;;;;;;12.07;10.87;;;12.20;99.90;;;;;;5110569;28;20232;-78
2023/06/08 01:17:23;;;;;;;12.37;10.60;;;12.20;99.90;;;;;;5112941;28;20236;-79
2023/06/08 01:20:18;;;;;;;13.63;10.60;;;12.20;99.90;;;;;;5112725;28;20256;-78
2023/06/08 01:23:08;;;;;;;11.67;10.57;;;12.20;99.90;;;;;;5111593;28;20230;-77
2023/06/08 01:25:39;;;;;;;12.07;10.93;;;12.10;99.90;;;;;;5112778;28;20214;-78
2023/06/08 01:28:13;;;;;;;11.40;10.20;;;12.10;99.90;;;;;;5112805;28;20248;-77
2023/06/08 01:30:43;;;;;;;14.00;9.80;;;12.10;99.90;;;;;;5112572;28;20212;-77
2023/06/08 01:33:15;;;;;;;11.30;10.30;;;12.00;99.90;;;;;;5094850;28;20199;-77
2023/06/08 01:35:45;;;;;;;11.07;10.07;;;12.00;99.90;;;;;;5092259;28;20521;-77
2023/06/08 01:38:21;;;;;;;12.60;10.03;;;11.90;99.90;;;;;;5092105;28;20698;-77
2023/06/08 01:40:57;;;;;;;11.90;10.60;;;11.90;99.90;;;;;;5096819;28;20244;-79
2023/06/08 01:43:27;;;;;;;12.27;10.37;;;11.90;99.90;;;;;;5114339;28;20667;-78
2023/06/08 01:46:00;;;;;;;11.43;10.33;;;11.90;99.90;;;;;;5116378;28;20293;-78
2023/06/08 01:48:29;;;;;;;11.50;10.40;;;11.90;99.90;;;;;;5115067;28;20659;-80
2023/06/08 01:50:59;;;;;;;12.20;11.00;;;11.80;99.90;;;;;;5116432;28;20652;-78
2023/06/08 01:53:27;;;;;;;12.13;11.03;;;11.80;99.90;;;;;;5115817;28;20211;-77
2023/06/08 01:55:59;;;;;;;11.77;10.57;;;11.80;99.90;;;;;;5116999;28;20241;-77
2023/06/08 01:58:27;;;;;;;12.30;11.10;;;11.80;99.90;;;;;;5116661;28;20217;-78
2023/06/08 02:00:55;;;;;;;12.37;11.17;;;11.80;99.90;;;;;;5117769;28;20232;-80
2023/06/08 02:03:24;;;;;;;12.13;10.93;;;11.70;99.90;;;;;;5117746;28;20261;-78
2023/06/08 02:05:52;;;;;;;13.00;11.70;;;11.70;99.90;;;;;;5115239;28;20217;-80
2023/06/08 02:08:20;;;;;;;11.87;10.83;;;11.70;99.90;;;;;;5116124;27;20682;-79
2023/06/08 02:10:48;;;;;;;12.87;11.67;;;11.60;99.90;;;;;;5116434;27;20214;-78
2023/06/08 02:13:18;;;;;;;11.93;10.73;;;11.60;99.90;;;;;;5114865;28;20312;-79
2023/06/08 02:15:46;;;;;;;11.40;10.30;;;11.60;99.90;;;;;;5116178;28;20242;-78
2023/06/08 02:18:14;;;;;;;11.50;10.40;;;11.50;99.90;;;;;;5116326;28;20307;-78
2023/06/08 02:20:43;;;;;;;12.00;10.70;;;11.50;99.90;;;;;;5116304;28;20214;-78
2023/06/08 02:23:11;;;;;;;11.97;10.77;;;11.50;99.90;;;;;;5098571;28;20227;-78
2023/06/08 02:25:39;;;;;;;11.67;10.57;;;11.50;99.90;;;;;;5095543;28;20210;-78
2023/06/08 02:28:07;;;;;;;11.57;10.37;;;11.40;99.90;;;;;;5095197;28;20229;-78
2023/06/08 02:30:36;;;;;;;12.30;10.73;;;11.40;99.90;;;;;;5098660;28;20202;-79
2023/06/08 02:33:06;;;;;;;13.00;11.17;;;11.40;99.90;;;;;;5115536;28;20202;-78
2023/06/08 02:35:34;;;;;;;12.93;11.60;;;11.40;99.90;;;;;;5115919;28;20290;-79
2023/06/08 02:38:02;;;;;;;14.03;12.60;;;11.40;99.90;;;;;;5116070;28;20206;-78
2023/06/08 02:40:31;;;;;;;13.53;12.27;;;11.30;99.90;;;;;;5115355;28;20651;-78
2023/06/08 02:42:59;;;;;;;14.33;12.93;;;11.30;99.90;;;;;;5116125;28;20698;-78
2023/06/08 02:45:28;;;;;;;13.90;12.50;;;11.40;99.90;;;;;;5116361;28;20259;-78
2023/06/08 02:47:57;;;;;;;13.30;12.10;;;11.30;99.90;;;;;;5115431;28;20553;-77
2023/06/08 02:50:25;;;;;;;12.00;10.90;;;11.30;99.90;;;;;;5114842;28;20660;-77
2023/06/08 02:52:54;;;;;;;14.63;12.33;;;11.30;99.90;;;;;;5115005;28;20640;-77
2023/06/08 02:55:22;;;;;;;13.20;11.83;;;11.30;99.90;;;;;;5114494;28;20447;-77
2023/06/08 02:57:50;;;;;;;12.93;11.63;;;11.20;99.90;;;;;;5113645;28;20225;-78
2023/06/08 03:00:20;;;;;;;13.23;11.90;;;11.20;99.90;;;;;;5114488;28;20202;-77
2023/06/08 03:02:48;;;;;;;13.13;11.83;;;11.20;99.90;;;;;;5114568;28;20247;-76
2023/06/08 03:05:18;;;;;;;11.87;10.77;;;11.10;99.90;;;;;;5114445;28;20942;-76
2023/06/08 03:07:46;;;;;;;11.53;10.53;;;11.10;99.90;;;;;;5113575;28;20210;-79
2023/06/08 03:10:14;;;;;;;15.47;11.40;;;11.10;99.90;;;;;;5114256;28;20237;-78
2023/06/08 03:12:42;;;;;;;12.50;11.30;;;11.10;99.90;;;;;;5113288;28;20206;-79
2023/06/08 03:15:11;;;;;;;12.47;11.27;;;11.10;99.90;;;;;;5113180;28;20246;-78
2023/06/08 03:17:42;;;;;;;11.97;10.87;;;11.10;99.90;;;;;;5114372;28;20206;-78
2023/06/08 03:20:12;;;;;;;11.87;10.77;;;11.10;99.90;;;;;;5114703;28;20206;-78
2023/06/08 03:22:45;;;;;;;13.77;12.37;;;11.10;99.90;;;;;;5113799;28;20233;-78
2023/06/08 03:25:16;;;;;;;13.93;12.63;;;11.10;99.90;;;;;;5113420;28;20252;-77
2023/06/08 03:27:44;;;;;;;14.97;13.43;;;11.10;99.90;;;;;;5114405;28;20213;-80
2023/06/08 03:30:13;;;;;;;13.67;12.27;;;11.10;99.90;;;;;;5114108;28;20212;-79
2023/06/08 03:32:41;;;;;;;13.47;12.27;;;11.10;99.90;;;;;;5112558;28;20362;-78
2023/06/08 03:35:10;;;;;;;14.00;12.70;;;11.20;99.90;;;;;;5113943;28;20672;-79
2023/06/08 03:37:38;;;;;;;15.03;13.53;;;11.10;99.90;;;;;;5113995;28;20267;-79
2023/06/08 03:40:09;;;;;;;15.30;13.73;;;11.20;99.90;;;;;;5113855;28;20206;-76
2023/06/08 03:42:37;;;;;;;14.90;13.60;;;11.20;99.90;;;;;;5111916;28;20333;-79
2023/06/08 03:45:06;;;;;;;14.03;12.73;;;11.30;99.90;;;;;;5113447;28;20236;-76
2023/06/08 03:47:35;;;;;;;13.73;12.43;;;11.30;99.90;;;;;;5113177;28;20699;-79
2023/06/08 03:50:04;;;;;;;14.13;12.73;;;11.30;99.90;;;;;;5113144;28;20707;-78
2023/06/08 03:52:32;;;;;;;14.23;12.90;;;11.30;99.90;;;;;;5113423;28;20257;-76
2023/06/08 03:55:00;;;;;;;14.13;12.83;;;11.40;99.90;;;;;;5113870;28;20272;-79
2023/06/08 03:57:29;;;;;;;14.27;12.97;;;11.40;99.90;;;;;;5115505;28;20213;-79
2023/06/08 03:59:57;;;;;;;14.13;12.70;;;11.50;99.90;;;;;;5113310;28;20210;-79
2023/06/08 04:02:26;;;;;;;14.97;13.47;;;11.50;99.90;;;;;;5113615;28;20207;-79
2023/06/08 04:04:54;;;;;;;15.03;13.63;;;11.60;99.90;;;;;;5113440;28;20248;-77
2023/06/08 04:07:22;;;;;;;15.00;13.60;;;11.70;99.90;;;;;;5111499;28;20210;-78
2023/06/08 04:09:50;;;;;;;16.80;15.10;;;11.80;99.90;;;;;;5113187;28;20684;-78
2023/06/08 04:12:18;;;;;;;14.03;12.73;;;11.90;99.90;;;;;;5112678;28;20381;-77
2023/06/08 04:14:48;;;;;;;15.33;13.83;;;12.00;99.90;;;;;;5112038;27;20234;-76
2023/06/08 04:17:16;;;;;;;14.37;13.07;;;12.00;99.90;;;;;;5112765;28;20202;-78
2023/06/08 04:19:44;;;;;;;15.73;14.30;;;12.20;99.90;;;;;;5112610;28;20612;-78
2023/06/08 04:22:12;;;;;;;14.90;13.60;;;12.30;99.90;;;;;;5111585;28;20230;-78
2023/06/08 04:24:40;;;;;;;17.77;16.13;;;12.40;99.90;;;;;;5112987;28;20308;-79
2023/06/08 04:27:09;;;;;;;16.90;15.13;;;12.50;99.90;;;;;;5112799;28;20214;-79
2023/06/08 04:29:37;;;;;;;15.93;14.33;;;12.70;99.90;;;;;;5112676;28;20734;-79
2023/06/08 04:32:07;;;;;;;16.37;14.77;;;12.70;99.90;;;;;;5113232;28;20240;-78
2023/06/08 04:34:35;;;;;;;16.63;15.13;;;12.80;99.90;;;;;;5112946;28;20209;-79
2023/06/08 04:37:04;;;;;;;15.13;13.73;;;13.00;99.90;;;;;;5112541;28;20206;-77
2023/06/08 04:39:32;;;;;;;15.07;13.57;;;13.00;99.90;;;;;;5112708;28;20206;-79
2023/06/08 04:42:02;;;;;;;14.90;13.50;;;13.10;99.90;;;;;;5110995;28;20210;-77
2023/06/08 04:44:33;;;;;;;13.97;12.67;;;13.20;99.90;;;;;;5112386;28;20225;-77
2023/06/08 04:47:02;;;;;;;15.93;14.43;;;13.10;99.90;;;;;;5112336;28;20659;-78
2023/06/08 04:49:32;;;;;;;14.33;13.03;;;13.30;99.90;;;;;;5112069;28;20210;-78
2023/06/08 04:52:01;;;;;;;14.37;12.87;;;13.40;99.90;;;;;;5110891;28;20509;-77
2023/06/08 04:54:31;;;;;;;15.37;13.77;;;13.50;99.90;;;;;;5112330;28;21006;-77
2023/06/08 04:57:00;;;;;;;15.97;14.40;;;13.60;99.90;;;;;;5112348;28;20191;-79
2023/06/08 04:59:28;;;;;;;15.63;14.13;;;13.70;99.90;;;;;;5110895;28;20259;-77
2023/06/08 05:01:56;;;;;;;15.57;14.03;;;13.90;99.90;;;;;;5112148;28;20286;-77
2023/06/08 05:04:25;;;;;;;15.30;13.87;;;14.00;99.90;;;;;;5112262;28;20261;-78
2023/06/08 05:06:54;;;;;;;14.83;13.50;;;14.10;99.90;;;;;;5111710;28;20206;-78
2023/06/08 05:09:22;;;;;;;15.10;13.60;;;14.20;99.90;;;;;;5091675;28;20207;-77
2023/06/08 05:11:50;;;;;;;14.43;13.13;;;14.30;99.90;;;;;;5091771;28;20202;-79
2023/06/08 05:14:19;;;;;;;15.07;13.60;;;14.50;99.90;;;;;;5091651;28;20218;-79
2023/06/08 05:16:47;;;;;;;13.70;12.47;;;14.60;99.90;;;;;;5091461;28;20215;-76
2023/06/08 05:19:15;;;;;;;15.63;14.13;;;14.70;99.90;;;;;;5095294;28;20218;-78
2023/06/08 05:21:43;;;;;;;14.43;13.07;;;14.80;99.90;;;;;;5095812;28;20294;-78
2023/06/08 05:24:12;;;;;;;14.60;13.23;;;14.90;99.90;;;;;;5095872;28;20256;-79
2023/06/08 05:26:41;;;;;;;13.17;11.87;;;15.00;99.90;;;;;;5095466;28;20214;-78
2023/06/08 05:29:10;;;;;;;14.00;12.60;;;15.10;99.90;;;;;;5095735;28;20211;-77
2023/06/08 05:31:39;;;;;;;13.00;11.77;;;15.20;99.90;;;;;;5095770;28;20272;-79
2023/06/08 05:34:07;;;;;;;13.37;12.13;;;15.30;99.90;;;;;;5107771;28;20202;-76
2023/06/08 05:36:35;;;;;;;13.37;12.17;;;15.50;99.90;;;;;;5116052;28;20210;-77
2023/06/08 05:39:04;;;;;;;13.40;12.20;;;15.60;99.90;;;;;;5115799;28;20217;-78
2023/06/08 05:41:34;;;;;;;12.83;11.73;;;15.80;99.90;;;;;;5115148;27;20198;-75
2023/06/08 05:44:02;;;;;;;12.83;11.63;;;15.90;99.90;;;;;;5115562;28;20315;-79
2023/06/08 05:46:30;;;;;;;12.60;11.50;;;16.10;99.90;;;;;;5115789;28;20633;-77
2023/06/08 05:48:58;;;;;;;11.43;10.23;;;16.40;99.90;;;;;;5115795;28;20221;-76
2023/06/08 05:51:26;;;;;;;10.17;8.97;;;17.00;99.90;;;;;;5114425;28;20202;-79
2023/06/08 05:53:55;;;;;;;9.83;8.80;;;17.80;99.90;;;;;;5113994;28;20206;-77
2023/06/08 05:56:23;;;;;;;8.60;7.70;;;19.20;99.90;;;;;;5115609;28;20594;-77
2023/06/08 05:58:52;;;;;;;8.83;7.80;;;20.20;99.90;;;;;;5118246;28;20214;-77
2023/06/08 06:01:20;;;;;;;8.90;7.80;;;21.20;99.90;;;;;;5115990;28;20206;-78
2023/06/08 06:03:48;;;;;;;8.10;7.30;;;21.90;99.90;;;;;;5115135;28;20230;-76
2023/06/08 06:06:17;;;;;;;7.30;6.60;;;23.30;99.90;;;;;;5115980;28;20203;-78
2023/06/08 06:08:45;;;;;;;7.30;6.60;;;24.30;99.90;;;;;;5117749;28;20213;-78
2023/06/08 06:11:13;;;;;;;7.20;6.50;;;24.60;98.60;;;;;;5116033;28;20217;-78
2023/06/08 06:13:41;;;;;;;6.75;6.15;;;25.20;96.00;;;;;;5113979;28;20245;-76
2023/06/08 06:16:11;;;;;;;6.30;5.70;;;25.30;94.80;;;;;;5114230;28;20663;-80
2023/06/08 06:18:44;;;;;;;7.22;5.78;;;26.50;92.90;;;;;;5116579;28;20624;-79
2023/06/08 06:21:12;;;;;;;9.18;5.90;;;27.10;90.00;;;;;;5115790;28;20318;-78
2023/06/08 06:23:40;;;;;;;7.13;6.47;;;26.20;90.50;;;;;;5115535;28;20256;-78
2023/06/08 06:26:10;;;;;;;5.90;5.30;;;26.20;88.20;;;;;;5115251;28;20301;-77
2023/06/08 06:28:38;;;;;;;6.93;6.32;;;27.10;87.70;;;;;;5116318;28;20217;-76
2023/06/08 06:31:06;;;;;;;6.78;6.07;;;27.70;81.80;;;;;;5120977;28;20606;-76
2023/06/08 06:33:35;;;;;;;6.72;5.82;;;27.80;78.10;;;;;;5116461;28;20232;-79
2023/06/08 06:36:05;;;;;;;7.20;6.50;;;27.20;82.60;;;;;;5113269;28;20202;-76
2023/06/08 06:38:33;;;;;;;6.57;5.97;;;26.30;84.40;;;;;;5114914;28;20210;-78
2023/06/08 06:41:03;;;;;;;6.68;6.00;;;25.70;87.80;;;;;;5114847;28;20618;-79
2023/06/08 06:43:31;;;;;;;6.32;5.72;;;25.60;89.00;;;;;;5113116;28;20209;-77
2023/06/08 06:45:59;;;;;;;7.55;5.97;;;25.60;89.90;;;;;;5114584;28;20771;-78
2023/06/08 06:48:27;;;;;;;6.80;6.10;;;24.80;91.40;;;;;;5114744;28;20288;-78
2023/06/08 06:50:57;;;;;;;7.10;6.13;;;24.00;92.50;;;;;;5113251;28;20231;-77
2023/06/08 06:53:25;;;;;;;7.30;6.53;;;23.40;94.40;;;;;;5114023;28;20252;-78
2023/06/08 06:55:53;;;;;;;6.60;6.00;;;22.60;96.90;;;;;;5114539;28;20297;-76
2023/06/08 06:58:22;;;;;;;6.83;6.13;;;22.10;99.60;;;;;;5114438;28;20206;-78
2023/06/08 07:00:50;;;;;;;7.33;6.37;;;22.20;99.90;;;;;;5113488;28;20255;-75
2023/06/08 07:03:20;;;;;;;6.50;5.90;;;22.60;99.40;;;;;;5114354;28;20213;-79
2023/06/08 07:05:49;;;;;;;7.10;6.10;;;22.60;99.70;;;;;;5114335;28;20569;-78
2023/06/08 07:08:19;;;;;;;6.33;5.73;;;23.20;98.90;;;;;;5106148;28;20207;-79
2023/06/08 07:10:47;;;;;;;6.07;5.57;;;24.30;97.50;;;;;;5093692;28;20230;-77
2023/06/08 07:13:15;;;;;;;6.00;5.50;;;25.60;95.70;;;;;;5093375;28;20570;-77
2023/06/08 07:15:43;;;;;;;8.02;5.47;;;26.50;89.80;;;;;;5108527;28;20206;-78
2023/06/08 07:18:11;;;;;;;5.80;5.30;;;27.40;86.50;;;;;;5114120;28;20256;-78
2023/06/08 07:20:39;;;;;;;5.63;5.13;;;28.30;81.40;;;;;;5113821;28;20826;-77
2023/06/08 07:23:08;;;;;;;6.00;5.03;;;27.90;78.60;;;;;;5112876;28;20206;-77
2023/06/08 07:25:57;;;;;;;6.55;5.22;;;28.30;77.40;;;;;;5113458;28;20226;-77
2023/06/08 07:28:47;;;;;;;6.68;4.78;;;28.50;78.00;;;;;;5113746;28;20609;-77
2023/06/08 07:31:15;;;;;;;6.72;4.68;;;29.00;78.10;;;;;;5113841;28;20206;-78
2023/06/08 07:33:43;;;;;;;5.90;4.40;;;29.60;72.40;;;;;;5112106;28;20255;-75
2023/06/08 07:36:11;;;;;;;4.53;4.13;;;30.10;70.00;;;;;;5113316;28;20210;-77
2023/06/08 07:38:40;;;;;;;4.82;4.32;;;30.10;70.00;;;;;;5113692;28;20237;-77
2023/06/08 07:41:09;;;;;;;5.38;4.88;;;30.60;67.50;;;;;;5112301;28;20245;-78
2023/06/08 07:43:37;;;;;;;7.20;5.15;;;31.20;61.30;;;;;;5114002;28;20214;-77
2023/06/08 07:46:05;;;;;;;5.30;4.80;;;30.10;62.10;;;;;;5113200;28;20366;-77
2023/06/08 07:48:33;;;;;;;5.47;4.10;;;30.10;61.90;;;;;;5113519;28;20210;-77
2023/06/08 07:51:01;;;;;;;5.03;4.53;;;30.40;61.40;;;;;;5112235;28;20202;-75
2023/06/08 07:53:35;;;;;;;4.68;4.28;;;31.60;57.70;;;;;;5112970;28;20606;-77
2023/06/08 07:56:04;;;;;;;5.38;3.78;;;32.20;55.70;;;;;;5112944;28;20647;-75
2023/06/08 07:58:34;;;;;;;6.30;3.50;;;32.00;54.40;;;;;;5113238;28;20210;-81
2023/06/08 08:01:03;;;;;;;4.72;3.63;;;31.30;54.40;;;;;;5112079;28;20206;-78
2023/06/08 08:03:36;;;;;;;4.75;3.40;;;30.40;55.60;;;;;;5112869;28;20209;-75
2023/06/08 08:06:04;;;;;;;4.68;3.50;;;30.50;55.80;;;;;;5112852;28;20234;-78
2023/06/08 08:08:32;;;;;;;3.55;3.15;;;30.30;56.70;;;;;;5107390;28;20199;-77
2023/06/08 08:11:00;;;;;;;3.70;3.30;;;31.30;54.40;;;;;;5092346;28;20222;-79
2023/06/08 08:13:29;;;;;;;3.90;3.60;;;30.90;53.80;;;;;;5092457;28;20575;-76
2023/06/08 08:15:58;;;;;;;4.97;3.00;;;30.80;53.00;;;;;;5092506;28;20207;-77
2023/06/08 08:18:26;;;;;;;5.32;3.00;;;31.00;53.40;;;;;;5111626;28;20255;-77
2023/06/08 08:20:54;;;;;;;3.30;3.00;;;30.70;51.50;;;;;;5112994;28;20259;-79
2023/06/08 08:23:22;;;;;;;3.00;2.75;;;31.40;52.50;;;;;;5112664;28;20216;-78
2023/06/08 08:25:51;;;;;;;3.17;2.75;;;31.80;51.80;;;;;;5105930;28;20226;-78
2023/06/08 08:28:19;;;;;;;3.75;2.67;;;31.80;50.60;;;;;;5092939;28;20202;-76
2023/06/08 08:30:47;;;;;;;3.83;2.60;;;31.90;49.30;;;;;;5092755;28;20242;-78
2023/06/08 08:33:16;;;;;;;2.75;2.55;;;32.50;47.90;;;;;;5092276;28;20207;-77
2023/06/08 08:35:45;;;;;;;4.25;2.70;;;32.30;50.60;;;;;;5092662;28;20669;-78
2023/06/08 08:38:14;;;;;;;3.10;2.60;;;32.40;47.10;;;;;;5092374;28;20214;-78
2023/06/08 08:40:42;;;;;;;2.72;2.53;;;33.30;45.10;;;;;;5092370;28;20239;-79
2023/06/08 08:43:13;;;;;;;2.85;2.58;;;32.90;42.90;;;;;;5099037;28;20209;-78
2023/06/08 08:45:42;;;;;;;2.97;2.65;;;32.60;43.20;;;;;;5113009;28;20271;-76
2023/06/08 08:48:13;;;;;;;2.97;2.58;;;32.60;45.30;;;;;;5112810;28;20210;-77
2023/06/08 08:50:43;;;;;;;4.32;3.00;;;32.70;45.30;;;;;;5112560;28;20221;-76
2023/06/08 08:53:14;;;;;;;4.05;3.03;;;32.20;45.20;;;;;;5103568;28;20217;-76
2023/06/08 08:55:47;;;;;;;3.08;2.78;;;31.00;46.80;;;;;;5096365;28;20254;-75
2023/06/08 08:58:18;;;;;;;3.00;2.70;;;31.40;46.60;;;;;;5096098;28;20210;-76
2023/06/08 09:00:50;;;;;;;3.22;2.88;;;32.20;47.30;;;;;;5096315;28;20241;-75
2023/06/08 09:03:18;;;;;;;4.18;2.75;;;32.10;45.40;;;;;;5106817;28;20233;-77
2023/06/08 09:05:51;;;;;;;3.55;2.88;;;31.90;47.20;;;;;;5116792;28;20260;-76
2023/06/08 09:08:20;;;;;;;4.70;2.75;;;31.80;44.40;;;;;;5116615;28;20186;-79
2023/06/08 09:11:03;;;;;;;3.28;2.90;;;31.40;43.50;;;;;;5114874;28;20289;-77
2023/06/08 09:13:32;;;;;;;3.42;2.85;;;30.90;44.40;;;;;;5116073;28;20226;-77
2023/06/08 09:16:10;;;;;;;3.08;2.72;;;31.00;46.30;;;;;;5116507;28;20202;-77
2023/06/08 09:18:39;;;;;;;3.75;3.03;;;30.80;46.90;;;;;;5116618;28;20206;-79
2023/06/08 09:21:22;;;;;;;3.08;2.67;;;30.80;44.60;;;;;;5115388;28;20245;-76
2023/06/08 09:24:08;;;;;;;3.10;2.80;;;31.10;44.60;;;;;;5116067;28;20908;-79
2023/06/08 09:26:39;;;;;;;2.90;2.70;;;31.80;43.30;;;;;;5116302;28;20222;-78
2023/06/08 09:29:07;;;;;;;3.10;2.80;;;31.20;45.20;;;;;;5116075;28;20263;-76
2023/06/08 09:31:39;;;;;;;3.90;2.90;;;31.70;43.10;;;;;;5116351;28;20214;-77
2023/06/08 09:34:09;;;;;;;2.75;2.53;;;32.50;42.50;;;;;;5116665;28;20190;-78
2023/06/08 09:36:43;;;;;;;3.30;2.60;;;32.50;44.00;;;;;;5116053;28;20207;-76
2023/06/08 09:39:12;;;;;;;2.58;2.38;;;32.70;38.90;;;;;;5095431;28;20221;-78
2023/06/08 09:41:40;;;;;;;3.25;2.67;;;32.40;42.00;;;;;;5101979;28;20206;-76
2023/06/08 09:44:19;;;;;;;3.20;2.90;;;32.00;39.90;;;;;;5116070;28;20275;-77
2023/06/08 09:46:48;;;;;;;3.50;2.38;;;32.50;39.80;;;;;;5113768;28;20564;-77
2023/06/08 09:49:17;;;;;;;3.85;2.53;;;33.20;40.00;;;;;;5095942;28;20238;-78
2023/06/08 09:51:49;;;;;;;3.65;2.63;;;32.80;41.10;;;;;;5096924;28;20669;-77
2023/06/08 09:54:20;;;;;;;3.33;2.50;;;33.00;39.50;;;;;;5095220;28;20230;-77
2023/06/08 09:56:54;;;;;;;2.65;2.45;;;32.80;41.60;;;;;;5108905;28;20622;-78
2023/06/08 09:59:30;;;;;;;3.03;2.70;;;32.10;41.30;;;;;;5117037;28;20385;-77
2023/06/08 10:02:00;;;;;;;2.40;2.20;;;33.10;39.50;;;;;;5115448;27;20668;-78
2023/06/08 10:04:36;;;;;;;2.95;2.50;;;33.10;38.00;;;;;;5114055;28;20676;-79
2023/06/08 10:07:10;;;;;;;3.60;2.33;;;33.30;37.40;;;;;;5095186;28;20275;-77
2023/06/08 10:09:42;;;;;;;2.90;2.40;;;33.00;38.30;;;;;;5094970;28;20209;-77
2023/06/08 10:12:13;;;;;;;2.40;2.20;;;33.10;36.30;;;;;;5100009;28;20660;-76
2023/06/08 10:14:42;;;;;;;2.30;2.10;;;33.20;39.60;;;;;;5116011;28;20691;-78
2023/06/08 10:17:11;;;;;;;2.60;2.38;;;32.50;37.20;;;;;;5115544;28;20274;-77
2023/06/08 10:19:39;;;;;;;2.80;2.60;;;31.80;39.30;;;;;;5115146;28;20259;-79
2023/06/08 10:22:10;;;;;;;4.55;3.10;;;32.20;38.60;;;;;;5114124;28;20582;-77
2023/06/08 10:24:40;;;;;;;2.92;2.58;;;33.00;40.50;;;;;;5117111;28;20255;-77
2023/06/08 10:27:30;;;;;;;2.60;2.40;;;32.70;40.40;;;;;;5116893;28;20685;-78
2023/06/08 10:30:01;;;;;;;2.65;2.45;;;31.80;39.90;;;;;;5113585;28;20210;-77
2023/06/08 10:32:32;;;;;;;3.03;2.72;;;30.50;44.30;;;;;;5114837;28;20214;-79
2023/06/08 10:35:04;;;;;;;2.97;2.67;;;30.60;46.40;;;;;;5114955;28;20267;-77
2023/06/08 10:37:36;;;;;;;3.55;2.60;;;30.60;42.50;;;;;;5113660;28;20214;-80
2023/06/08 10:40:09;;;;;;;4.13;2.90;;;30.40;44.00;;;;;;5115362;28;20202;-76
2023/06/08 10:42:37;;;;;;;3.70;2.50;;;31.20;41.20;;;;;;5115309;28;20206;-78
2023/06/08 10:45:07;;;;;;;3.00;2.70;;;31.50;42.80;;;;;;5114409;28;20228;-77
2023/06/08 10:47:37;;;;;;;2.50;2.30;;;31.50;42.70;;;;;;5114604;28;20238;-77
2023/06/08 10:50:09;;;;;;;2.70;2.47;;;30.90;41.90;;;;;;5114654;28;20240;-80
2023/06/08 10:52:46;;;;;;;2.65;2.40;;;30.30;41.90;;;;;;5114038;28;20636;-78
2023/06/08 10:55:16;;;;;;;2.78;2.50;;;28.80;43.80;;;;;;5113231;28;20237;-79
2023/06/08 10:57:45;;;;;;;2.88;2.58;;;28.80;46.40;;;;;;5114133;28;20210;-78
2023/06/08 11:00:42;;;;;;;2.70;2.40;;;30.00;43.30;;;;;;5114587;28;20302;-76
2023/06/08 11:03:12;;;;;;;2.55;2.35;;;30.60;41.30;;;;;;5112741;28;20590;-78
2023/06/08 11:05:43;;;;;;;3.58;2.40;;;30.30;42.20;;;;;;5114765;28;20637;-75
2023/06/08 11:08:12;;;;;;;4.45;2.58;;;30.70;41.50;;;;;;5114326;28;20221;-77
2023/06/08 11:10:42;;;;;;;3.50;2.60;;;30.40;41.60;;;;;;5113938;28;20291;-77
2023/06/08 11:13:12;;;;;;;4.25;2.72;;;30.80;40.60;;;;;;5112850;28;20275;-77
2023/06/08 11:15:42;;;;;;;4.93;2.67;;;31.50;43.90;;;;;;5113966;28;20237;-77
2023/06/08 11:18:11;;;;;;;3.65;2.97;;;31.30;42.40;;;;;;5114218;28;20729;-76
2023/06/08 11:20:42;;;;;;;2.80;2.60;;;31.70;41.90;;;;;;5114097;28;20418;-78
2023/06/08 11:23:13;;;;;;;3.10;2.80;;;32.00;39.10;;;;;;5114178;28;20232;-78
2023/06/08 11:25:44;;;;;;;2.75;2.55;;;32.30;39.10;;;;;;5114394;28;20202;-77
2023/06/08 11:28:13;;;;;;;2.70;2.50;;;32.30;40.60;;;;;;5113392;28;20290;-78
2023/06/08 11:30:41;;;;;;;4.75;2.80;;;33.00;40.10;;;;;;5117491;28;20295;-80
2023/06/08 11:33:14;;;;;;;2.88;2.63;;;32.10;40.10;;;;;;5114190;28;20206;-78
2023/06/08 11:35:42;;;;;;;3.97;2.92;;;30.80;41.40;;;;;;5114904;28;20220;-75
2023/06/08 11:38:11;;;;;;;2.95;2.70;;;30.40;41.80;;;;;;5093801;28;20223;-76
2023/06/08 11:40:42;;;;;;;3.92;2.90;;;29.80;41.20;;;;;;5113355;28;20210;-77
2023/06/08 11:43:12;;;;;;;3.42;2.80;;;29.80;41.40;;;;;;5113151;28;20190;-78
2023/06/08 11:45:40;;;;;;;3.75;2.83;;;29.80;41.70;;;;;;5093257;28;20214;-81
2023/06/08 11:48:08;;;;;;;2.90;2.63;;;30.10;43.90;;;;;;5093636;28;20692;-76
2023/06/08 11:50:46;;;;;;;2.80;2.47;;;30.50;43.60;;;;;;5093688;28;20263;-78
2023/06/08 11:53:16;;;;;;;5.05;2.83;;;30.40;43.50;;;;;;5092385;28;20210;-79
2023/06/08 11:55:46;;;;;;;3.80;3.17;;;30.60;42.90;;;;;;5093230;28;20280;-76
2023/06/08 11:58:15;;;;;;;3.17;2.88;;;30.40;44.80;;;;;;5093423;28;20203;-78
2023/06/08 12:00:43;;;;;;;4.18;3.10;;;30.10;44.60;;;;;;5107664;28;20202;-78
2023/06/08 12:03:11;;;;;;;4.50;2.80;;;29.90;44.40;;;;;;5113044;28;20297;-74
2023/06/08 12:05:40;;;;;;;3.53;2.80;;;29.90;45.30;;;;;;5113133;28;20202;-78
2023/06/08 12:08:14;;;;;;;4.63;3.20;;;29.40;44.40;;;;;;5112853;28;20230;-78
2023/06/08 12:10:43;;;;;;;3.40;3.10;;;28.40;46.30;;;;;;5092526;28;20215;-79
2023/06/08 12:13:15;;;;;;;3.93;3.00;;;28.10;49.30;;;;;;5092132;28;20231;-81
2023/06/08 12:15:46;;;;;;;3.53;2.97;;;28.60;48.80;;;;;;5094726;28;20201;-79
2023/06/08 12:18:16;;;;;;;3.53;2.77;;;29.00;47.10;;;;;;5106091;28;20228;-77
2023/06/08 12:20:46;;;;;;;4.30;3.07;;;29.00;50.20;;;;;;5112758;28;20210;-79
2023/06/08 12:23:14;;;;;;;4.00;3.30;;;28.50;48.00;;;;;;5112779;28;20241;-78
2023/06/08 12:25:43;;;;;;;3.40;3.10;;;28.40;48.70;;;;;;5112210;28;20206;-79
2023/06/08 12:28:19;;;;;;;3.77;3.03;;;28.30;50.50;;;;;;5112089;28;20226;-77
2023/06/08 12:30:47;;;;;;;3.73;3.00;;;28.20;47.40;;;;;;5113398;28;20297;-78
2023/06/08 12:33:18;;;;;;;5.07;3.03;;;28.80;47.60;;;;;;5111233;28;20699;-78
2023/06/08 12:35:49;;;;;;;3.37;3.07;;;29.10;47.30;;;;;;5112959;28;20205;-78
2023/06/08 12:38:17;;;;;;;3.17;2.87;;;29.20;45.20;;;;;;5112366;28;20314;-78
2023/06/08 12:40:48;;;;;;;3.80;3.00;;;28.90;46.10;;;;;;5113750;28;20206;-78
2023/06/08 12:43:18;;;;;;;3.90;3.40;;;28.40;45.90;;;;;;5114153;28;20281;-80
2023/06/08 12:45:46;;;;;;;4.37;3.30;;;28.90;46.30;;;;;;5114207;28;20187;-76
2023/06/08 12:48:15;;;;;;;6.17;3.07;;;29.30;46.30;;;;;;5113200;28;20274;-78
2023/06/08 12:50:43;;;;;;;4.83;3.30;;;29.10;45.80;;;;;;5111616;28;20653;-79
2023/06/08 12:53:11;;;;;;;3.30;2.90;;;29.20;46.50;;;;;;5112849;28;20213;-81